Time;durP1;ratioP1;P1;durP2;ratioP2;P2;SDS_P1;SDS_P2;PMS_P1;PMS_P2;Temp;Humidity;BMP_temperature;BMP_pressure;BME280_temperature;BME280_humidity;BME280_pressure;Samples;Min_cycle;Max_cycle;Signal;HPM_P1;HPM_P2
2022/07/30 00:00:56;;;;;;;4.45;4.07;;;;;;;22.14;52.64;100732.63;5051649;28;20330;-28
2022/07/30 00:03:21;;;;;;;4.38;3.97;;;;;;;22.11;52.68;100735.47;5050373;28;20445;-29
2022/07/30 00:05:47;;;;;;;4.30;4.00;;;;;;;22.08;52.90;100741.91;5067929;28;20032;-28
2022/07/30 00:08:12;;;;;;;4.93;4.32;;;;;;;22.05;52.96;100742.06;5070003;28;20036;-28
2022/07/30 00:10:38;;;;;;;4.63;4.32;;;;;;;22.02;53.53;100736.84;5053328;28;20403;-28
2022/07/30 00:13:04;;;;;;;4.65;4.25;;;;;;;22.00;53.50;100733.38;5071221;28;20032;-28
2022/07/30 00:15:29;;;;;;;4.25;3.85;;;;;;;21.96;52.95;100729.13;5071197;28;20095;-28
2022/07/30 00:17:55;;;;;;;4.30;3.90;;;;;;;21.94;53.61;100723.00;5071356;28;20073;-28
2022/07/30 00:20:20;;;;;;;4.70;4.30;;;;;;;21.94;53.47;100733.75;5071512;28;20020;-28
2022/07/30 00:22:46;;;;;;;4.07;3.67;;;;;;;21.90;53.73;100727.66;5071005;28;20025;-28
2022/07/30 00:25:11;;;;;;;4.63;4.10;;;;;;;21.86;54.04;100727.00;5070860;28;20464;-28
2022/07/30 00:27:36;;;;;;;4.43;3.97;;;;;;;21.86;54.48;100727.00;5071679;28;20024;-28
2022/07/30 00:30:03;;;;;;;4.80;4.32;;;;;;;21.83;54.31;100729.84;5070931;28;20077;-28
2022/07/30 00:32:28;;;;;;;4.88;4.38;;;;;;;21.81;54.26;100734.44;5071222;28;20111;-28
2022/07/30 00:34:53;;;;;;;6.85;4.22;;;;;;;21.79;54.26;100741.69;5071077;28;20035;-28
2022/07/30 00:37:19;;;;;;;4.35;3.95;;;;;;;21.77;54.51;100746.28;5070857;28;20017;-28
2022/07/30 00:39:44;;;;;;;4.60;4.20;;;;;;;21.74;55.02;100744.63;5070729;28;20381;-28
2022/07/30 00:42:09;;;;;;;4.55;4.15;;;;;;;21.72;54.97;100735.78;5071117;28;20467;-28
2022/07/30 00:44:35;;;;;;;5.25;4.63;;;;;;;21.70;54.93;100740.34;5070829;28;20043;-28
2022/07/30 00:47:00;;;;;;;6.18;4.45;;;;;;;21.69;54.99;100748.50;5070265;28;20028;-28
2022/07/30 00:49:26;;;;;;;4.97;4.57;;;;;;;21.66;55.47;100745.03;5063375;28;20519;-28
2022/07/30 00:51:51;;;;;;;4.97;4.50;;;;;;;21.65;55.28;100745.13;5064035;28;20529;-28
2022/07/30 00:54:17;;;;;;;5.57;4.45;;;;;;;21.62;55.39;100747.97;5052564;28;20115;-28
2022/07/30 00:56:42;;;;;;;4.63;4.22;;;;;;;21.58;55.64;100743.72;5070004;28;20034;-29
2022/07/30 00:59:08;;;;;;;4.57;4.18;;;;;;;21.56;55.83;100740.25;5070208;28;20031;-28
2022/07/30 01:01:34;;;;;;;7.05;4.75;;;;;;;21.52;55.90;100736.88;5063564;28;20017;-28
2022/07/30 01:04:00;;;;;;;5.50;4.18;;;;;;;21.51;56.11;100732.47;5070745;28;20088;-28
2022/07/30 01:06:25;;;;;;;5.13;4.68;;;;;;;21.49;55.87;100737.03;5055228;28;20087;-29
2022/07/30 01:08:51;;;;;;;4.70;4.30;;;;;;;21.46;55.84;100739.88;5067752;28;20024;-28
2022/07/30 01:11:16;;;;;;;5.20;4.68;;;;;;;21.41;56.29;100732.94;5068393;28;20033;-28
2022/07/30 01:13:42;;;;;;;4.15;3.75;;;;;;;21.39;56.28;100726.81;5071406;28;20025;-28
2022/07/30 01:16:08;;;;;;;4.40;4.10;;;;;;;21.39;56.59;100736.66;5056574;28;20388;-28
2022/07/30 01:21:23;;;;;;;4.28;3.88;;;;;;;21.33;56.40;100734.31;5063049;28;20027;-29
2022/07/30 01:23:48;;;;;;;;;;;;;;;21.30;56.82;100729.97;5061566;28;20040;-27
2022/07/30 01:26:16;;;;;;;4.40;4.00;;;;;;;21.29;56.97;100717.53;5066343;28;19923;-28
2022/07/30 01:28:45;;;;;;;4.75;4.35;;;;;;;21.28;57.18;100727.38;5049134;28;20032;-28
2022/07/30 01:31:13;;;;;;;4.85;4.45;;;;;;;21.24;57.01;100719.59;5070090;28;20115;-28
2022/07/30 01:33:42;;;;;;;5.82;4.32;;;;;;;21.21;56.99;100715.22;5055098;28;20166;-28
2022/07/30 01:36:09;;;;;;;4.15;3.75;;;;;;;21.20;57.36;100721.56;5070598;28;20051;-28
2022/07/30 01:38:35;;;;;;;5.22;4.70;;;;;;;21.18;57.00;100709.19;5059634;28;20021;-28
2022/07/30 01:41:01;;;;;;;5.70;5.05;;;;;;;21.15;57.35;100711.06;5050818;28;20400;-28
2022/07/30 01:43:27;;;;;;;5.20;4.70;;;;;;;21.13;57.21;100712.09;5046336;28;20086;-28
2022/07/30 01:45:54;;;;;;;4.93;4.43;;;;;;;21.10;57.24;100723.88;5037490;28;20032;-28
2022/07/30 01:48:21;;;;;;;4.75;4.25;;;;;;;21.08;57.35;100716.84;5055544;28;20033;-28
2022/07/30 01:50:49;;;;;;;6.47;4.35;;;;;;;21.07;57.27;100715.13;5073743;28;20031;-28
2022/07/30 01:53:17;;;;;;;4.78;4.35;;;;;;;21.04;57.46;100716.13;5055664;28;20115;-28
2022/07/30 01:55:42;;;;;;;4.38;4.07;;;;;;;21.03;57.42;100717.09;5073938;28;20020;-28
2022/07/30 01:58:09;;;;;;;5.43;4.82;;;;;;;20.99;57.19;100731.59;5073949;28;20025;-28
2022/07/30 02:00:38;;;;;;;6.53;5.22;;;;;;;21.01;57.53;100743.13;5058075;28;20082;-28
2022/07/30 02:03:04;;;;;;;5.47;4.85;;;;;;;20.98;57.92;100729.88;5049382;28;20029;-28
2022/07/30 02:05:30;;;;;;;4.78;4.38;;;;;;;20.95;57.83;100730.03;5067012;28;20052;-28
2022/07/30 02:08:12;;;;;;;5.03;4.60;;;;;;;20.94;57.77;100728.31;5047045;28;20583;-29
2022/07/30 02:10:47;;;;;;;6.32;4.90;;;;;;;20.91;57.55;100740.06;5066801;28;20577;-29
2022/07/30 02:13:17;;;;;;;5.25;4.07;;;;;;;20.88;57.87;100738.38;5047271;28;20087;-28
2022/07/30 02:15:51;;;;;;;4.60;4.30;;;;;;;20.87;58.12;100739.31;5064920;28;20060;-28
2022/07/30 02:18:20;;;;;;;5.28;4.80;;;;;;;20.84;57.77;100750.19;5041758;28;20039;-28
2022/07/30 02:21:04;;;;;;;5.03;4.60;;;;;;;20.83;57.78;100747.56;5062683;28;20021;-29
2022/07/30 02:23:30;;;;;;;5.03;4.20;;;;;;;20.81;57.68;100753.00;5065190;28;20024;-28
2022/07/30 02:25:56;;;;;;;5.60;4.53;;;;;;;20.80;57.62;100762.00;5070877;28;20560;-28
2022/07/30 02:28:23;;;;;;;5.35;4.82;;;;;;;20.80;57.56;100767.38;5054249;28;20033;-27
2022/07/30 02:30:54;;;;;;;4.80;4.30;;;;;;;20.79;57.76;100771.00;5034073;28;20532;-29
2022/07/30 02:33:26;;;;;;;5.20;4.80;;;;;;;20.76;57.73;100773.81;5054976;28;20483;-28
2022/07/30 02:35:53;;;;;;;5.50;5.00;;;;;;;20.73;57.97;100777.53;5046282;28;20067;-28
2022/07/30 02:38:19;;;;;;;4.80;4.40;;;;;;;20.72;57.99;100772.25;5063342;28;20035;-29
2022/07/30 02:40:45;;;;;;;5.15;4.75;;;;;;;20.70;57.85;100784.84;5072875;28;20024;-28
2022/07/30 02:43:14;;;;;;;5.07;4.68;;;;;;;20.69;58.39;100785.78;5056865;28;20040;-28
2022/07/30 02:45:40;;;;;;;4.93;4.53;;;;;;;20.69;58.68;100792.03;5066285;28;20399;-28
2022/07/30 02:48:08;;;;;;;5.25;4.82;;;;;;;20.68;58.13;100792.09;5053227;28;20020;-28
2022/07/30 02:50:34;;;;;;;5.15;4.75;;;;;;;20.65;58.30;100790.44;5053586;28;20020;-29
2022/07/30 02:53:01;;;;;;;5.82;5.30;;;;;;;20.66;59.14;100793.97;5071717;28;20025;-28
2022/07/30 02:55:29;;;;;;;5.63;5.10;;;;;;;20.63;58.64;100793.22;5057872;28;20032;-28
2022/07/30 02:57:55;;;;;;;6.53;4.82;;;;;;;20.61;58.25;100787.03;5066461;28;20024;-29
2022/07/30 03:00:22;;;;;;;4.95;4.55;;;;;;;20.60;58.30;100782.63;5061355;28;20448;-29
2022/07/30 03:02:48;;;;;;;5.88;5.38;;;;;;;20.59;59.10;100791.63;5052400;28;20025;-29
2022/07/30 03:05:14;;;;;;;5.30;4.90;;;;;;;20.56;58.99;100783.72;5068950;28;20541;-28
2022/07/30 03:07:40;;;;;;;6.22;5.65;;;;;;;20.54;59.09;100780.25;5054294;28;20498;-28
2022/07/30 03:10:06;;;;;;;4.78;4.40;;;;;;;20.51;59.10;100775.91;5052114;28;20028;-28
2022/07/30 03:12:33;;;;;;;5.65;5.07;;;;;;;20.50;59.43;100774.19;5061946;28;20502;-28
2022/07/30 03:14:58;;;;;;;6.10;5.60;;;;;;;20.49;59.26;100776.94;5053188;28;20028;-28
2022/07/30 03:17:26;;;;;;;6.13;5.60;;;;;;;20.45;59.28;100775.38;5040474;28;20031;-28
2022/07/30 03:19:52;;;;;;;6.78;5.93;;;;;;;20.41;59.62;100780.00;5053446;28;20069;-28
2022/07/30 03:22:19;;;;;;;5.75;5.25;;;;;;;20.37;59.52;100768.56;5051311;28;20051;-28
2022/07/30 03:24:45;;;;;;;5.70;5.20;;;;;;;20.33;59.94;100772.34;5050427;28;20024;-28
2022/07/30 03:27:12;;;;;;;7.93;7.00;;;;;;;20.31;60.08;100774.22;5062286;28;20388;-29
2022/07/30 03:29:38;;;;;;;6.95;6.35;;;;;;;20.31;59.95;100784.91;5070060;28;20384;-28
2022/07/30 03:32:04;;;;;;;6.07;5.55;;;;;;;20.31;59.89;100784.91;5044777;28;20031;-28
2022/07/30 03:34:32;;;;;;;6.18;5.63;;;;;;;20.32;59.97;100786.69;5059139;28;20383;-28
2022/07/30 03:36:57;;;;;;;6.53;5.70;;;;;;;20.29;59.60;100785.94;5070334;28;20181;-28
2022/07/30 03:39:23;;;;;;;5.70;5.30;;;;;;;20.28;59.93;100774.38;5040413;28;20443;-28
2022/07/30 03:41:50;;;;;;;7.07;6.35;;;;;;;20.25;59.80;100782.56;5049603;28;20035;-28
2022/07/30 03:44:15;;;;;;;6.25;5.75;;;;;;;20.22;59.74;100775.56;5066591;28;20487;-29
2022/07/30 03:46:41;;;;;;;6.28;5.68;;;;;;;20.20;59.61;100785.44;5055103;28;20031;-28
2022/07/30 03:49:07;;;;;;;5.97;5.47;;;;;;;20.20;60.01;100792.59;5036255;28;20123;-29
2022/07/30 03:51:34;;;;;;;6.93;5.90;;;;;;;20.18;60.34;100795.38;5063600;28;20025;-28
2022/07/30 03:54:00;;;;;;;6.10;5.50;;;;;;;20.15;60.14;100787.50;5051210;28;20036;-28
2022/07/30 03:56:25;;;;;;;6.50;5.82;;;;;;;20.14;60.08;100788.41;5029483;28;20063;-29
2022/07/30 03:58:51;;;;;;;6.07;5.55;;;;;;;20.12;60.25;100788.50;5046913;28;20391;-28
2022/07/30 04:01:16;;;;;;;6.25;5.75;;;;;;;20.12;60.16;100790.31;5067556;28;20041;-28
2022/07/30 04:03:42;;;;;;;6.45;5.80;;;;;;;20.09;60.05;100787.78;5053082;28;20032;-28
2022/07/30 04:06:07;;;;;;;6.28;5.45;;;;;;;20.09;59.87;100787.78;5071012;28;20024;-29
2022/07/30 04:08:32;;;;;;;6.32;5.72;;;;;;;20.05;59.96;100792.41;5071426;28;20028;-29
2022/07/30 04:10:58;;;;;;;6.60;6.00;;;;;;;20.03;60.08;100790.72;5071638;28;20491;-28
2022/07/30 04:13:23;;;;;;;6.55;5.95;;;;;;;20.03;59.96;100799.63;5069762;28;20040;-29
2022/07/30 04:16:00;;;;;;;8.07;5.53;;;;;;;20.00;59.85;100794.41;5070706;28;20020;-28
2022/07/30 04:18:30;;;;;;;6.32;5.72;;;;;;;19.98;60.06;100790.94;5044606;28;20039;-29
2022/07/30 04:20:57;;;;;;;6.18;5.68;;;;;;;19.97;60.20;100802.56;5065710;28;20391;-28
2022/07/30 04:23:22;;;;;;;6.00;5.40;;;;;;;19.93;59.93;100801.84;5048585;28;20099;-28
2022/07/30 04:25:48;;;;;;;6.72;5.55;;;;;;;19.93;60.36;100811.66;5050901;28;20279;-28
2022/07/30 04:28:13;;;;;;;8.40;5.95;;;;;;;19.93;60.26;100811.66;5069285;28;20468;-29
2022/07/30 04:30:40;;;;;;;5.82;5.32;;;;;;;19.90;60.14;100807.34;5051153;28;20024;-28
2022/07/30 04:33:07;;;;;;;6.07;5.45;;;;;;;19.87;60.21;100799.44;5050864;28;20020;-29
2022/07/30 04:35:33;;;;;;;6.22;5.60;;;;;;;19.87;60.43;100794.97;5063136;28;20455;-28
2022/07/30 04:38:00;;;;;;;6.00;5.45;;;;;;;19.83;60.42;100793.38;5061974;28;20016;-28
2022/07/30 04:40:26;;;;;;;5.55;5.05;;;;;;;19.79;60.77;100797.13;5067130;28;20064;-28
2022/07/30 04:42:51;;;;;;;6.00;5.50;;;;;;;19.75;60.78;100796.41;5058114;28;20425;-29
2022/07/30 04:45:19;;;;;;;5.60;5.10;;;;;;;19.77;60.68;100800.84;5040352;28;20025;-29
2022/07/30 04:47:44;;;;;;;5.88;5.30;;;;;;;19.75;60.66;100803.56;5055077;28;20020;-28
2022/07/30 04:50:11;;;;;;;8.40;5.57;;;;;;;19.73;60.67;100800.09;5074752;28;20031;-28
2022/07/30 04:52:36;;;;;;;5.88;5.22;;;;;;;19.70;61.00;100790.41;5056752;28;20031;-29
2022/07/30 04:55:04;;;;;;;6.00;5.50;;;;;;;19.69;60.96;100793.13;5074694;28;20111;-28
2022/07/30 04:57:30;;;;;;;6.53;5.88;;;;;;;19.66;60.74;100788.81;5074640;28;20031;-28
2022/07/30 04:59:56;;;;;;;7.93;5.63;;;;;;;19.63;60.88;100772.03;5074804;28;20032;-28
2022/07/30 05:02:24;;;;;;;5.72;5.20;;;;;;;19.64;61.33;100773.78;5062627;28;20043;-28
2022/07/30 05:04:50;;;;;;;5.75;5.15;;;;;;;19.61;61.22;100774.78;5072925;28;20033;-28
2022/07/30 05:07:16;;;;;;;5.63;5.13;;;;;;;19.58;61.57;100775.75;5056547;28;20027;-28
2022/07/30 05:09:42;;;;;;;5.75;4.85;;;;;;;19.56;61.48;100771.44;5072991;28;20021;-28
2022/07/30 05:12:08;;;;;;;5.50;5.03;;;;;;;19.54;61.30;100768.81;5053355;28;20028;-29
2022/07/30 05:14:33;;;;;;;5.82;5.22;;;;;;;19.55;61.67;100765.22;5065645;28;20051;-28
2022/07/30 05:16:58;;;;;;;5.68;5.18;;;;;;;19.52;61.36;100754.66;5065913;28;20029;-29
2022/07/30 05:19:24;;;;;;;6.05;5.47;;;;;;;19.53;61.87;100747.50;5055990;28;20111;-29
2022/07/30 05:21:49;;;;;;;5.30;4.90;;;;;;;19.52;61.78;100745.75;5065536;28;20498;-28
2022/07/30 05:24:14;;;;;;;6.43;5.53;;;;;;;19.49;61.73;100744.09;5050180;28;20078;-28
2022/07/30 05:26:40;;;;;;;5.57;5.07;;;;;;;19.48;61.97;100747.72;5074249;28;20103;-28
2022/07/30 05:29:05;;;;;;;8.00;5.10;;;;;;;19.48;62.06;100758.41;5055924;28;20024;-28
2022/07/30 05:31:31;;;;;;;5.90;5.32;;;;;;;19.48;61.87;100747.72;5073945;28;20139;-29
2022/07/30 05:33:56;;;;;;;10.07;5.65;;;;;;;19.44;62.00;100748.81;5074174;28;20048;-28
2022/07/30 05:36:22;;;;;;;7.15;5.53;;;;;;;19.43;62.19;100749.72;5073892;28;20020;-28
2022/07/30 05:38:47;;;;;;;5.25;4.85;;;;;;;19.42;62.00;100754.22;5073824;28;20036;-28
2022/07/30 05:41:13;;;;;;;4.72;4.43;;;;;;;19.39;62.04;100759.69;5056139;28;20021;-28
2022/07/30 05:43:38;;;;;;;5.63;5.22;;;;;;;19.41;62.18;100767.66;5073741;28;20531;-28
2022/07/30 05:46:04;;;;;;;6.35;4.80;;;;;;;19.39;62.30;100777.53;5073536;28;20059;-28
2022/07/30 05:48:30;;;;;;;5.53;5.03;;;;;;;19.38;62.02;100774.00;5073975;28;20032;-28
2022/07/30 05:50:55;;;;;;;4.50;4.20;;;;;;;19.38;62.31;100774.00;5073865;28;20028;-28
2022/07/30 05:53:21;;;;;;;5.22;4.82;;;;;;;19.36;62.17;100776.75;5073568;28;20055;-28
2022/07/30 05:55:46;;;;;;;5.15;4.65;;;;;;;19.34;62.53;100772.41;5073525;28;20123;-29
2022/07/30 05:58:11;;;;;;;5.00;4.60;;;;;;;19.36;62.03;100792.78;5074113;28;20119;-28
2022/07/30 06:00:37;;;;;;;5.30;4.88;;;;;;;19.35;61.98;100788.38;5072202;28;20078;-28
2022/07/30 06:03:02;;;;;;;5.32;4.82;;;;;;;19.35;61.42;100785.69;5073516;28;20369;-28
2022/07/30 06:05:28;;;;;;;6.47;5.22;;;;;;;19.34;62.12;100800.00;5073404;28;20484;-28
2022/07/30 06:07:53;;;;;;;5.50;5.05;;;;;;;19.34;61.98;100794.66;5073188;28;20480;-29
2022/07/30 06:10:19;;;;;;;5.45;4.95;;;;;;;19.32;62.27;100799.22;5073465;28;20028;-28
2022/07/30 06:12:44;;;;;;;5.28;4.85;;;;;;;19.33;62.39;100798.28;5055078;28;20035;-28
2022/07/30 06:15:10;;;;;;;6.57;4.82;;;;;;;19.31;62.46;100797.47;5055268;28;20024;-29
2022/07/30 06:17:40;;;;;;;5.32;4.82;;;;;;;19.32;62.20;100809.03;5064992;28;20040;-28
2022/07/30 06:20:06;;;;;;;5.75;4.60;;;;;;;19.31;62.12;100808.16;5073157;28;20085;-28
2022/07/30 06:22:31;;;;;;;5.13;4.63;;;;;;;19.32;61.80;100825.06;5072422;28;20107;-29
2022/07/30 06:24:57;;;;;;;6.05;4.72;;;;;;;19.32;62.00;100828.63;5054114;28;20067;-28
2022/07/30 06:27:22;;;;;;;5.15;4.65;;;;;;;19.33;62.13;100835.72;5072922;28;20028;-29
2022/07/30 06:29:47;;;;;;;4.60;4.13;;;;;;;19.34;62.00;100834.75;5059103;28;20178;-29
2022/07/30 06:32:13;;;;;;;5.55;4.97;;;;;;;19.33;62.03;100841.06;5053245;28;20056;-28
2022/07/30 06:34:38;;;;;;;4.80;4.30;;;;;;;19.34;61.91;100853.47;5052228;28;20435;-28
2022/07/30 06:37:03;;;;;;;4.63;4.10;;;;;;;19.34;61.88;100837.44;5072437;28;20425;-28
2022/07/30 06:39:29;;;;;;;5.90;4.55;;;;;;;19.35;61.86;100844.53;5073095;28;20043;-29
2022/07/30 06:41:54;;;;;;;7.57;5.18;;;;;;;19.36;61.92;100854.31;5059745;28;20047;-28
2022/07/30 06:44:19;;;;;;;4.72;4.32;;;;;;;19.39;62.17;100860.44;5071963;28;20032;-29
2022/07/30 06:46:45;;;;;;;7.22;4.30;;;;;;;19.39;62.06;100857.75;5071894;28;20032;-29
2022/07/30 06:49:10;;;;;;;4.93;4.43;;;;;;;19.41;62.13;100862.09;5051491;28;20082;-28
2022/07/30 06:51:35;;;;;;;4.95;3.67;;;;;;;19.43;61.84;100867.38;5026769;28;20448;-28
2022/07/30 06:54:01;;;;;;;5.78;4.43;;;;;;;19.44;61.78;100870.00;5047132;28;20032;-29
2022/07/30 06:56:26;;;;;;;4.75;4.35;;;;;;;19.48;62.42;100870.75;5068577;28;20028;-28
2022/07/30 06:58:51;;;;;;;4.90;4.50;;;;;;;19.48;61.95;100870.75;5056872;28;20021;-28
2022/07/30 07:01:17;;;;;;;5.57;4.50;;;;;;;19.50;62.06;100868.88;5069291;28;20035;-29
2022/07/30 07:03:42;;;;;;;4.47;3.92;;;;;;;19.56;62.68;100871.28;5066495;28;20024;-29
2022/07/30 07:06:07;;;;;;;4.68;4.28;;;;;;;19.58;62.51;100865.88;5052353;28;20025;-28
2022/07/30 07:08:35;;;;;;;5.03;4.63;;;;;;;19.61;62.63;100869.25;5067146;28;20020;-28
2022/07/30 07:11:01;;;;;;;5.57;4.45;;;;;;;19.68;64.78;100874.34;5053677;28;20032;-29
2022/07/30 07:13:26;;;;;;;5.50;4.50;;;;;;;19.72;64.10;100873.28;5070397;28;20020;-28
2022/07/30 07:15:51;;;;;;;5.72;4.55;;;;;;;19.73;65.68;100867.84;5053760;28;20408;-29
2022/07/30 07:18:17;;;;;;;5.22;4.78;;;;;;;19.74;65.34;100866.06;5059249;28;20039;-29
2022/07/30 07:20:45;;;;;;;5.80;5.30;;;;;;;19.74;65.20;100860.72;5062511;28;20141;-29
2022/07/30 07:23:10;;;;;;;5.70;5.20;;;;;;;19.80;66.41;100865.78;5066908;28;20432;-28
2022/07/30 07:25:36;;;;;;;6.30;5.38;;;;;;;19.81;65.89;100866.66;5069661;28;20566;-28
2022/07/30 07:28:01;;;;;;;5.60;4.82;;;;;;;19.81;64.08;100870.19;5046654;28;20031;-28
2022/07/30 07:30:26;;;;;;;5.50;5.00;;;;;;;19.83;64.95;100868.31;5058310;28;20511;-28
2022/07/30 07:32:52;;;;;;;6.30;5.30;;;;;;;19.86;64.83;100870.84;5071789;28;20031;-29
2022/07/30 07:35:17;;;;;;;5.57;5.03;;;;;;;19.86;64.10;100868.19;5066578;28;20036;-29
2022/07/30 07:37:42;;;;;;;5.35;4.90;;;;;;;19.89;65.55;100864.50;5071810;28;20408;-28
2022/07/30 07:40:08;;;;;;;5.57;5.07;;;;;;;19.92;64.66;100868.81;5071702;28;20396;-28
2022/07/30 07:42:33;;;;;;;5.78;5.28;;;;;;;19.93;64.48;100876.78;5071397;28;20046;-28
2022/07/30 07:44:59;;;;;;;5.60;5.13;;;;;;;19.93;63.66;100875.91;5071421;28;20040;-28
2022/07/30 07:47:24;;;;;;;5.80;5.18;;;;;;;19.96;64.73;100875.78;5071618;28;20032;-27
2022/07/30 07:49:53;;;;;;;5.57;4.82;;;;;;;19.97;64.31;100872.16;5071341;28;20021;-28
2022/07/30 07:52:19;;;;;;;5.40;4.90;;;;;;;19.99;65.02;100871.19;5068373;28;20036;-28
2022/07/30 07:54:44;;;;;;;6.03;5.43;;;;;;;19.99;63.54;100876.56;5066909;28;20093;-29
2022/07/30 07:57:10;;;;;;;6.07;5.57;;;;;;;20.00;65.50;100878.28;5044061;28;20044;-29
2022/07/30 07:59:36;;;;;;;5.13;4.72;;;;;;;20.02;64.75;100886.25;5071779;28;20074;-28
2022/07/30 08:02:01;;;;;;;4.93;4.45;;;;;;;20.03;63.59;100890.66;5070749;28;20448;-28
2022/07/30 08:04:27;;;;;;;5.95;5.32;;;;;;;20.01;64.82;100884.53;5063205;28;20040;-29
2022/07/30 08:06:52;;;;;;;6.78;4.80;;;;;;;20.02;63.88;100886.25;5064979;28;20044;-28
2022/07/30 08:09:18;;;;;;;4.97;4.57;;;;;;;20.04;64.13;100879.00;5050522;28;20421;-27
2022/07/30 08:11:43;;;;;;;7.68;5.40;;;;;;;20.04;64.15;100888.84;5070978;28;20365;-29
2022/07/30 08:14:08;;;;;;;5.93;5.32;;;;;;;20.04;64.24;100894.22;5070651;28;20415;-28
2022/07/30 08:16:34;;;;;;;5.45;4.53;;;;;;;20.04;64.06;100899.56;5070679;28;20384;-28
2022/07/30 08:18:59;;;;;;;7.35;5.47;;;;;;;20.03;64.05;100898.69;5070716;28;20399;-28
2022/07/30 08:21:24;;;;;;;11.00;5.10;;;;;;;20.04;64.14;100892.38;5051368;28;20475;-28
2022/07/30 08:23:50;;;;;;;8.02;5.60;;;;;;;20.04;64.10;100894.22;5069926;28;20518;-28
2022/07/30 08:26:15;;;;;;;5.22;4.57;;;;;;;20.03;64.01;100887.97;5071472;28;20071;-28
2022/07/30 08:28:42;;;;;;;5.93;5.20;;;;;;;20.04;63.89;100895.06;5070466;28;20012;-29
2022/07/30 08:31:08;;;;;;;5.10;4.72;;;;;;;20.03;63.91;100890.66;5070052;28;20035;-29
2022/07/30 08:33:33;;;;;;;5.70;5.10;;;;;;;20.04;63.83;100903.09;5070739;28;20095;-28
2022/07/30 08:35:58;;;;;;;5.18;4.68;;;;;;;20.04;63.68;100894.22;5064447;28;20025;-28
2022/07/30 08:38:24;;;;;;;5.40;4.90;;;;;;;20.05;63.97;100907.53;5053710;28;20021;-28
2022/07/30 08:40:49;;;;;;;5.00;4.60;;;;;;;20.03;63.91;100912.06;5070022;28;20073;-27
2022/07/30 08:43:15;;;;;;;9.80;5.57;;;;;;;20.04;63.88;100910.28;5069889;28;20408;-29
2022/07/30 08:45:41;;;;;;;5.47;4.93;;;;;;;20.03;63.95;100916.53;5051440;28;20054;-29
2022/07/30 08:48:10;;;;;;;5.72;5.22;;;;;;;20.02;64.10;100907.66;5052823;28;20032;-28
2022/07/30 08:50:35;;;;;;;5.88;5.30;;;;;;;20.02;64.50;100922.84;5067693;28;20112;-28
2022/07/30 08:53:02;;;;;;;5.70;5.18;;;;;;;20.02;64.34;100926.41;5070317;28;20103;-28
2022/07/30 08:55:27;;;;;;;5.15;4.68;;;;;;;20.02;64.61;100926.41;5070775;28;20740;-28
2022/07/30 08:57:53;;;;;;;5.85;5.35;;;;;;;20.01;64.00;100924.66;5070083;28;20514;-29
2022/07/30 09:00:20;;;;;;;5.95;4.95;;;;;;;20.01;63.70;100927.34;5070729;28;20035;-29
2022/07/30 09:02:45;;;;;;;6.18;5.22;;;;;;;20.00;64.08;100921.13;5070847;28;20078;-28
2022/07/30 09:05:11;;;;;;;6.90;5.85;;;;;;;20.00;64.11;100917.56;5071112;28;20032;-28
2022/07/30 09:07:37;;;;;;;5.40;4.85;;;;;;;20.00;63.95;100926.47;5070609;28;20492;-28
2022/07/30 09:10:04;;;;;;;5.38;4.95;;;;;;;20.00;63.84;100925.59;5070477;28;20102;-28
2022/07/30 09:12:41;;;;;;;6.10;5.60;;;;;;;19.99;63.97;100924.75;5062013;28;20040;-29
2022/07/30 09:15:19;;;;;;;7.18;5.80;;;;;;;19.99;63.91;100924.75;5071339;28;20033;-28
2022/07/30 09:17:56;;;;;;;4.93;4.50;;;;;;;19.99;63.74;100923.81;5070723;28;20021;-28
2022/07/30 09:20:27;;;;;;;5.53;5.03;;;;;;;19.99;63.99;100929.19;5070659;28;20053;-28
2022/07/30 09:22:58;;;;;;;6.25;5.65;;;;;;;19.99;64.32;100929.19;5070035;28;20139;-28
2022/07/30 09:25:43;;;;;;;6.07;5.55;;;;;;;19.98;64.23;100928.28;5069878;28;20028;-28
2022/07/30 09:28:09;;;;;;;7.85;5.65;;;;;;;19.98;63.96;100922.09;5069808;28;20081;-28
2022/07/30 09:30:53;;;;;;;5.63;5.22;;;;;;;19.98;64.44;100924.78;5069663;28;20384;-29
2022/07/30 09:33:32;;;;;;;5.72;5.22;;;;;;;19.98;64.21;100938.16;5069103;28;20058;-29
2022/07/30 09:35:58;;;;;;;6.90;4.68;;;;;;;19.97;64.26;100933.72;5070040;28;20062;-29
2022/07/30 09:38:23;;;;;;;6.78;5.07;;;;;;;19.97;64.14;100931.03;5057089;28;20024;-28
2022/07/30 09:40:50;;;;;;;9.98;6.57;;;;;;;19.60;72.41;100945.13;5074350;28;20021;-27
2022/07/30 09:43:15;;;;;;;7.72;7.13;;;;;;;19.39;75.50;100946.91;5055591;28;20028;-27
2022/07/30 09:45:59;;;;;;;7.88;6.95;;;;;;;19.34;76.85;100948.91;5055183;28;20043;-27
2022/07/30 09:48:26;;;;;;;8.00;7.30;;;;;;;19.16;75.79;100953.19;5074332;28;20062;-28
2022/07/30 09:50:52;;;;;;;8.95;7.65;;;;;;;19.16;77.12;100951.38;5073532;28;20020;-28
2022/07/30 09:53:18;;;;;;;7.80;6.88;;;;;;;19.05;77.34;100953.59;5063589;28;20029;-28
2022/07/30 09:55:44;;;;;;;8.27;7.47;;;;;;;19.07;76.86;100957.09;5071637;28;20035;-28
2022/07/30 09:58:11;;;;;;;8.43;7.72;;;;;;;19.25;75.52;100954.63;5073494;28;20020;-28
2022/07/30 10:00:37;;;;;;;8.85;6.05;;;;;;;19.51;72.54;100960.69;5055412;28;20029;-28
2022/07/30 10:03:21;;;;;;;7.25;6.55;;;;;;;19.67;69.99;100967.13;5055620;28;20767;-28
2022/07/30 10:05:57;;;;;;;8.43;6.78;;;;;;;19.76;68.92;100973.88;5073195;28;20081;-28
2022/07/30 10:08:42;;;;;;;7.82;6.35;;;;;;;19.81;68.19;100974.53;5073223;28;20024;-28
2022/07/30 10:11:15;;;;;;;6.70;5.85;;;;;;;19.83;67.89;100971.81;5073756;28;20081;-29
2022/07/30 10:13:41;;;;;;;8.27;5.95;;;;;;;19.84;67.00;100974.41;5068254;28;20521;-28
2022/07/30 10:16:06;;;;;;;6.25;5.40;;;;;;;19.84;67.43;100969.06;5073629;28;20043;-28
2022/07/30 10:18:33;;;;;;;7.20;6.30;;;;;;;19.83;66.78;100970.00;5073739;28;20476;-28
2022/07/30 10:21:00;;;;;;;6.05;5.55;;;;;;;19.84;66.63;100971.75;5073712;28;20031;-28
2022/07/30 10:23:28;;;;;;;7.18;5.50;;;;;;;19.83;66.35;100966.44;5055491;28;20387;-29
2022/07/30 10:25:55;;;;;;;6.25;5.70;;;;;;;19.83;66.46;100959.31;5054196;28;20028;-28
2022/07/30 10:28:21;;;;;;;5.75;5.15;;;;;;;19.84;66.38;100952.16;5055479;28;20055;-28
2022/07/30 10:30:49;;;;;;;6.18;5.68;;;;;;;19.83;66.68;100945.91;5072980;28;20016;-28
2022/07/30 10:33:14;;;;;;;6.10;5.50;;;;;;;19.84;66.72;100952.16;5073025;28;20073;-28
2022/07/30 10:35:39;;;;;;;7.00;5.35;;;;;;;19.82;66.28;100949.53;5054810;28;20111;-28
2022/07/30 10:38:10;;;;;;;6.75;5.40;;;;;;;19.84;66.32;100957.50;5069107;28;20092;-28
2022/07/30 10:40:49;;;;;;;6.05;5.50;;;;;;;19.85;66.13;100953.88;5062692;28;20020;-28
2022/07/30 10:43:18;;;;;;;6.13;5.63;;;;;;;19.85;66.09;100960.09;5054222;28;20391;-28
2022/07/30 10:45:56;;;;;;;6.63;6.07;;;;;;;19.85;65.90;100956.56;5053479;28;20020;-28
2022/07/30 10:48:22;;;;;;;6.20;5.60;;;;;;;19.86;66.12;100956.50;5071770;28;20044;-28
2022/07/30 10:50:53;;;;;;;5.95;5.22;;;;;;;19.86;65.79;100967.19;5072330;28;20024;-28
2022/07/30 10:53:35;;;;;;;5.88;5.40;;;;;;;19.87;65.82;100966.25;5052605;28;20432;-28
2022/07/30 10:56:13;;;;;;;7.13;5.90;;;;;;;19.90;65.98;100965.25;5053919;28;20024;-28
2022/07/30 10:59:04;;;;;;;6.18;5.50;;;;;;;19.91;66.09;100971.47;5068903;28;20033;-29
2022/07/30 11:01:47;;;;;;;6.57;5.95;;;;;;;19.92;66.37;100967.84;5072652;28;20031;-28
2022/07/30 11:04:28;;;;;;;6.80;6.00;;;;;;;19.94;66.73;100968.69;5071361;28;20392;-29
2022/07/30 11:07:20;;;;;;;6.50;5.90;;;;;;;19.95;67.06;100975.75;5066377;28;20032;-28
2022/07/30 11:09:46;;;;;;;6.43;5.80;;;;;;;19.97;66.39;100974.75;5063544;28;20044;-28
2022/07/30 11:12:11;;;;;;;6.47;5.63;;;;;;;19.99;67.03;100983.63;5072360;28;20045;-28
2022/07/30 11:14:45;;;;;;;6.57;5.90;;;;;;;20.02;66.89;100976.38;5072156;28;20435;-28
2022/07/30 11:17:11;;;;;;;6.78;5.93;;;;;;;20.04;67.05;100985.22;5071879;28;20483;-27
2022/07/30 11:20:08;;;;;;;6.32;5.68;;;;;;;20.05;66.82;100984.28;5047997;28;20757;-28
2022/07/30 11:22:39;;;;;;;5.95;5.25;;;;;;;20.06;66.63;100984.22;5060694;28;20404;-28
2022/07/30 11:25:10;;;;;;;6.35;5.75;;;;;;;20.08;67.30;100979.66;5074236;28;20028;-28
2022/07/30 11:27:41;;;;;;;;;;;;;;;20.08;67.89;100985.00;5069734;28;20033;-28
2022/07/30 11:30:15;;;;;;;;;;;;;;;20.13;67.05;100971.41;5069009;28;20587;-28